createdAt,value
2023-03-11T00:00:25.402Z,7.90
2023-03-11T00:02:55.392Z,7.53
2023-03-11T00:05:25.784Z,7.63
2023-03-11T00:07:54.216Z,7.43
2023-03-11T00:10:25.482Z,7.83
2023-03-11T00:12:53.907Z,8.00
2023-03-11T00:15:23.343Z,7.77
2023-03-11T00:17:52.370Z,7.57
2023-03-11T00:20:23.339Z,8.10
2023-03-11T00:22:52.079Z,7.20
2023-03-11T00:25:21.600Z,8.30
2023-03-11T00:27:49.910Z,7.57
2023-03-11T00:30:19.057Z,7.00
2023-03-11T00:32:49.121Z,7.73
2023-03-11T00:35:19.550Z,7.47
2023-03-11T00:37:49.101Z,8.57
2023-03-11T00:40:19.398Z,8.10
2023-03-11T00:42:47.705Z,7.87
2023-03-11T00:45:16.112Z,8.57
2023-03-11T00:47:44.550Z,8.73
2023-03-11T00:50:18.025Z,8.80
2023-03-11T00:52:46.550Z,8.07
2023-03-11T00:55:16.235Z,9.10
2023-03-11T00:57:45.094Z,7.70
2023-03-11T01:00:16.392Z,8.07
2023-03-11T01:02:45.219Z,7.67
2023-03-11T01:05:14.687Z,8.67
2023-03-11T01:07:43.049Z,9.83
2023-03-11T01:10:12.590Z,10.43
2023-03-11T01:12:40.662Z,10.20
2023-03-11T01:15:10.296Z,8.30
2023-03-11T01:17:38.666Z,8.40
2023-03-11T01:20:08.640Z,8.20
2023-03-11T01:22:38.067Z,8.47
2023-03-11T01:25:06.808Z,7.93
2023-03-11T01:27:35.233Z,8.73
2023-03-11T01:30:03.606Z,8.37
2023-03-11T01:32:32.032Z,8.83
2023-03-11T01:35:00.505Z,9.73
2023-03-11T01:37:29.009Z,9.90
2023-03-11T01:39:58.401Z,8.30
2023-03-11T01:42:26.777Z,8.27
2023-03-11T01:44:55.578Z,8.07
2023-03-11T01:47:39.413Z,7.43
2023-03-11T01:50:13.664Z,7.43
2023-03-11T01:52:43.626Z,6.80
2023-03-11T01:55:14.952Z,7.43
2023-03-11T01:57:44.468Z,6.80
2023-03-11T02:00:15.726Z,7.20
2023-03-11T02:02:46.778Z,7.33
2023-03-11T02:05:15.251Z,7.63
2023-03-11T02:07:43.641Z,6.73
2023-03-11T02:10:14.922Z,6.53
2023-03-11T02:12:44.150Z,7.53
2023-03-11T02:15:13.684Z,7.27
2023-03-11T02:17:43.332Z,6.60
2023-03-11T02:20:25.714Z,6.60
2023-03-11T02:22:57.349Z,7.17
2023-03-11T02:25:35.289Z,6.47
2023-03-11T02:28:06.968Z,7.23
2023-03-11T02:30:36.068Z,7.57
2023-03-11T02:33:04.380Z,7.07
2023-03-11T02:35:32.783Z,7.37
2023-03-11T02:38:01.149Z,7.83
2023-03-11T02:40:45.054Z,7.47
2023-03-11T02:43:18.414Z,8.03
2023-03-11T02:45:48.096Z,8.13
2023-03-11T02:48:16.868Z,7.03
2023-03-11T02:50:46.696Z,6.93
2023-03-11T02:53:15.755Z,6.20
2023-03-11T02:55:44.295Z,7.03
2023-03-11T02:58:12.635Z,16.07
2023-03-11T03:00:42.121Z,11.57
2023-03-11T03:03:10.853Z,10.33
2023-03-11T03:05:39.165Z,8.83
2023-03-11T03:08:08.037Z,6.33
2023-03-11T03:10:36.394Z,6.60
2023-03-11T03:13:04.897Z,5.77
2023-03-11T03:15:33.163Z,5.00
2023-03-11T03:18:02.540Z,5.07
2023-03-11T03:20:30.901Z,5.27
2023-03-11T03:22:59.070Z,5.67
2023-03-11T03:25:27.443Z,4.73
2023-03-11T03:27:55.802Z,5.27
2023-03-11T03:30:24.193Z,4.77
2023-03-11T03:32:52.668Z,5.13
2023-03-11T03:35:22.222Z,5.33
2023-03-11T03:37:50.542Z,4.43
2023-03-11T03:40:18.857Z,4.80
2023-03-11T03:42:47.162Z,4.80
2023-03-11T03:45:15.593Z,4.70
2023-03-11T03:47:43.925Z,4.20
2023-03-11T03:50:13.458Z,4.97
2023-03-11T03:52:43.117Z,4.97
2023-03-11T03:55:11.633Z,4.97
2023-03-11T03:57:40.068Z,5.37
2023-03-11T04:00:10.203Z,4.83
2023-03-11T04:02:38.674Z,4.43
2023-03-11T04:05:07.771Z,3.83
2023-03-11T04:07:36.549Z,4.33
2023-03-11T04:10:07.503Z,4.30
2023-03-11T04:12:35.838Z,4.53
2023-03-11T04:15:04.106Z,4.20
2023-03-11T04:17:32.646Z,3.87
2023-03-11T04:20:00.955Z,3.93
2023-03-11T04:22:29.307Z,4.00
2023-03-11T04:24:57.633Z,4.30
2023-03-11T04:27:27.417Z,4.20
2023-03-11T04:29:55.692Z,4.27
2023-03-11T04:32:24.008Z,3.53
2023-03-11T04:34:52.445Z,4.13
2023-03-11T04:37:20.737Z,3.57
2023-03-11T04:39:49.152Z,3.87
2023-03-11T04:42:19.206Z,4.10
2023-03-11T04:44:48.599Z,4.20
2023-03-11T04:47:16.859Z,3.70
2023-03-11T04:49:45.164Z,4.37
2023-03-11T04:52:13.460Z,3.67
2023-03-11T04:54:41.872Z,4.57
2023-03-11T04:57:10.463Z,4.80
2023-03-11T04:59:38.991Z,4.63
2023-03-11T05:02:08.317Z,4.33
2023-03-11T05:04:36.696Z,4.60
2023-03-11T05:07:05.042Z,4.73
2023-03-11T05:09:33.442Z,4.63
2023-03-11T05:12:01.958Z,4.60
2023-03-11T05:14:30.500Z,4.80
2023-03-11T05:16:58.916Z,4.83
2023-03-11T05:19:35.154Z,4.90
2023-03-11T05:22:03.735Z,4.50
2023-03-11T05:24:32.075Z,5.33
2023-03-11T05:27:01.405Z,4.50
2023-03-11T05:29:29.746Z,4.93
2023-03-11T05:31:58.298Z,5.53
2023-03-11T05:34:26.666Z,4.83
2023-03-11T05:36:55.990Z,5.67
2023-03-11T05:39:24.384Z,4.87
2023-03-11T05:41:52.633Z,5.50
2023-03-11T05:44:21.227Z,5.30
2023-03-11T05:46:49.325Z,5.63
2023-03-11T05:49:17.376Z,5.33
2023-03-11T05:51:45.664Z,4.97
2023-03-11T05:54:16.013Z,4.90
2023-03-11T05:56:45.701Z,5.47
2023-03-11T05:59:16.392Z,4.70
2023-03-11T06:01:45.268Z,5.40
2023-03-11T06:04:13.717Z,5.33
2023-03-11T06:06:42.551Z,5.10
2023-03-11T06:09:14.994Z,4.33
2023-03-11T06:11:43.643Z,4.60
2023-03-11T06:14:13.928Z,5.20
2023-03-11T06:16:42.526Z,5.37
2023-03-11T06:19:11.184Z,4.87
2023-03-11T06:21:39.852Z,4.07
2023-03-11T06:24:08.502Z,4.50
2023-03-11T06:26:37.964Z,4.30
2023-03-11T06:29:06.581Z,4.90
2023-03-11T06:31:34.852Z,4.37
2023-03-11T06:34:03.206Z,4.00
2023-03-11T06:36:31.585Z,4.70
2023-03-11T06:38:59.895Z,5.27
2023-03-11T06:41:28.230Z,6.40
2023-03-11T06:44:00.067Z,5.77
2023-03-11T06:46:28.546Z,5.73
2023-03-11T06:48:56.831Z,5.47
2023-03-11T06:51:25.269Z,6.80
2023-03-11T06:53:54.809Z,7.83
2023-03-11T06:56:24.510Z,7.87
2023-03-11T06:58:53.373Z,7.63
2023-03-11T07:01:24.233Z,6.33
2023-03-11T07:03:53.232Z,6.27
2023-03-11T07:06:23.514Z,6.00
2023-03-11T07:08:53.262Z,9.43
2023-03-11T07:11:23.448Z,6.87
2023-03-11T07:13:52.107Z,5.53
2023-03-11T07:16:23.474Z,5.80
2023-03-11T07:18:52.471Z,6.20
2023-03-11T07:21:22.606Z,5.13
2023-03-11T07:23:53.949Z,6.07
2023-03-11T07:26:22.292Z,6.23
2023-03-11T07:28:50.773Z,6.57
2023-03-11T07:31:21.768Z,7.33
2023-03-11T07:33:51.730Z,6.77
2023-03-11T07:36:22.252Z,4.70
2023-03-11T07:38:50.753Z,6.53
2023-03-11T07:41:19.170Z,7.73
2023-03-11T07:43:47.136Z,7.73
2023-03-11T07:46:18.574Z,6.77
2023-03-11T07:48:47.372Z,6.87
2023-03-11T07:51:18.179Z,6.83
2023-03-11T07:53:46.643Z,7.87
2023-03-11T07:56:16.251Z,5.60
2023-03-11T07:58:45.822Z,5.57
2023-03-11T08:01:16.612Z,6.03
2023-03-11T08:03:45.568Z,5.60
2023-03-11T08:06:16.535Z,5.27
2023-03-11T08:08:45.066Z,5.90
2023-03-11T08:11:14.722Z,5.53
2023-03-11T08:13:43.143Z,5.67
2023-03-11T08:16:13.240Z,5.17
2023-03-11T08:18:42.006Z,4.27
2023-03-11T08:21:12.739Z,3.63
2023-03-11T08:23:43.200Z,4.30
2023-03-11T08:26:13.137Z,4.83
2023-03-11T08:28:41.634Z,4.17
2023-03-11T08:31:14.821Z,4.60
2023-03-11T08:33:43.650Z,4.87
2023-03-11T08:36:12.310Z,3.90
2023-03-11T08:38:41.775Z,4.37
2023-03-11T08:41:10.167Z,5.30
2023-03-11T08:43:38.796Z,4.90
2023-03-11T08:46:08.043Z,3.83
2023-03-11T08:48:37.832Z,4.87
2023-03-11T08:51:11.236Z,4.50
2023-03-11T08:53:39.574Z,5.17
2023-03-11T08:56:10.124Z,4.90
2023-03-11T08:58:38.595Z,4.30
2023-03-11T09:01:07.260Z,3.30
2023-03-11T09:03:36.511Z,3.83
2023-03-11T09:06:07.843Z,4.47
2023-03-11T09:08:36.349Z,4.10
2023-03-11T09:11:05.574Z,3.83
2023-03-11T09:13:35.565Z,3.90
2023-03-11T09:16:06.008Z,4.30
2023-03-11T09:18:34.030Z,5.03
2023-03-11T09:21:02.662Z,4.97
2023-03-11T09:23:31.011Z,3.80
2023-03-11T09:25:59.336Z,4.10
2023-03-11T09:28:27.698Z,3.97
2023-03-11T09:30:57.602Z,4.53
2023-03-11T09:33:26.209Z,4.47
2023-03-11T09:35:54.684Z,4.97
2023-03-11T09:38:23.277Z,3.80
2023-03-11T09:40:58.540Z,4.33
2023-03-11T09:43:46.605Z,3.60
2023-03-11T09:46:44.196Z,4.13
2023-03-11T09:49:22.699Z,3.73
2023-03-11T09:51:58.822Z,3.57
2023-03-11T09:54:29.046Z,3.47
2023-03-11T09:56:57.526Z,3.40
2023-03-11T09:59:32.999Z,3.20
2023-03-11T10:02:04.143Z,3.60
2023-03-11T10:04:39.586Z,3.90
2023-03-11T10:07:14.137Z,3.53
2023-03-11T10:09:47.428Z,3.80
2023-03-11T10:12:26.936Z,4.03
2023-03-11T10:15:05.938Z,4.20
2023-03-11T10:18:12.859Z,3.67
2023-03-11T10:20:50.671Z,4.23
2023-03-11T10:23:27.168Z,3.23
2023-03-11T10:26:04.258Z,4.43
2023-03-11T10:28:36.857Z,4.20
2023-03-11T10:31:18.991Z,4.73
2023-03-11T10:33:51.267Z,3.47
2023-03-11T10:36:24.246Z,4.73
2023-03-11T10:38:54.879Z,3.33
2023-03-11T10:41:29.945Z,3.10
2023-03-11T10:44:04.443Z,3.50
2023-03-11T10:46:32.813Z,3.07
2023-03-11T10:49:01.206Z,2.80
2023-03-11T10:51:35.835Z,3.80
2023-03-11T10:54:05.197Z,3.37
2023-03-11T10:56:35.143Z,2.90
2023-03-11T10:59:05.302Z,3.10
2023-03-11T11:01:33.705Z,3.73
2023-03-11T11:04:02.709Z,3.33
2023-03-11T11:06:33.792Z,3.00
2023-03-11T11:09:15.896Z,3.53
2023-03-11T11:11:44.360Z,3.30
2023-03-11T11:14:12.681Z,3.20
2023-03-11T11:16:41.136Z,3.50
2023-03-11T11:19:11.949Z,3.47
2023-03-11T11:21:44.200Z,3.43
2023-03-11T11:24:19.529Z,2.97
2023-03-11T11:27:06.347Z,2.70
2023-03-11T11:29:34.903Z,3.40
2023-03-11T11:32:19.480Z,3.30
2023-03-11T11:34:58.858Z,3.30
2023-03-11T11:37:32.439Z,2.67
2023-03-11T11:40:11.163Z,3.10
2023-03-11T11:42:41.091Z,3.53
2023-03-11T11:45:15.975Z,3.87
2023-03-11T11:47:49.414Z,3.07
2023-03-11T11:50:25.771Z,2.80
2023-03-11T11:52:59.389Z,3.70
2023-03-11T11:55:29.726Z,3.13
2023-03-11T11:57:58.445Z,3.27
2023-03-11T12:00:41.909Z,3.87
2023-03-11T12:03:26.160Z,4.13
2023-03-11T12:05:58.975Z,2.43
2023-03-11T12:08:37.117Z,2.40
2023-03-11T12:11:08.377Z,4.27
2023-03-11T12:14:03.276Z,3.50
2023-03-11T12:16:42.048Z,2.20
2023-03-11T12:19:22.759Z,2.80
2023-03-11T12:22:13.868Z,2.27
2023-03-11T12:25:01.462Z,3.37
2023-03-11T12:27:34.862Z,3.20
2023-03-11T12:30:06.436Z,3.53
2023-03-11T12:32:38.708Z,3.43
2023-03-11T12:35:20.644Z,3.43
2023-03-11T12:37:57.374Z,2.43
2023-03-11T12:40:59.155Z,2.67
2023-03-11T12:43:30.497Z,3.33
2023-03-11T12:45:59.805Z,2.33
2023-03-11T12:48:35.999Z,2.17
2023-03-11T12:51:05.825Z,2.57
2023-03-11T12:53:45.931Z,3.33
2023-03-11T12:56:27.343Z,3.10
2023-03-11T12:59:16.048Z,4.00
2023-03-11T13:02:06.321Z,3.53
2023-03-11T13:04:45.387Z,3.17
2023-03-11T13:07:43.414Z,2.83
2023-03-11T13:10:22.605Z,3.33
2023-03-11T13:12:53.381Z,2.63
2023-03-11T13:15:36.232Z,2.43
2023-03-11T13:18:16.763Z,2.33
2023-03-11T13:20:49.220Z,2.00
2023-03-11T13:23:33.848Z,2.30
2023-03-11T13:26:17.334Z,2.20
2023-03-11T13:29:10.991Z,2.60
2023-03-11T13:31:57.349Z,1.80
2023-03-11T13:34:33.180Z,2.40
2023-03-11T13:37:20.360Z,2.40
2023-03-11T13:39:56.092Z,2.17
2023-03-11T13:42:30.714Z,2.17
2023-03-11T13:45:01.052Z,2.80
2023-03-11T13:47:31.506Z,2.50
2023-03-11T13:50:04.481Z,2.80
2023-03-11T13:52:36.001Z,2.10
2023-03-11T13:55:07.545Z,2.17
2023-03-11T13:57:37.177Z,2.13
2023-03-11T14:00:17.199Z,2.13
2023-03-11T14:02:48.597Z,2.33
2023-03-11T14:05:20.197Z,2.10
2023-03-11T14:07:48.581Z,2.73
2023-03-11T14:10:25.775Z,2.20
2023-03-11T14:12:54.348Z,2.70
2023-03-11T14:15:26.544Z,2.43
2023-03-11T14:17:55.626Z,2.87
2023-03-11T14:20:26.285Z,3.13
2023-03-11T14:22:56.938Z,2.20
2023-03-11T14:25:27.450Z,2.50
2023-03-11T14:27:58.268Z,1.90
2023-03-11T14:30:29.625Z,2.30
2023-03-11T14:33:00.478Z,3.90
2023-03-11T14:35:29.118Z,2.40
2023-03-11T14:37:57.577Z,2.40
2023-03-11T14:40:29.698Z,2.20
2023-03-11T14:43:01.483Z,3.47
2023-03-11T14:45:33.511Z,2.30
2023-03-11T14:48:07.109Z,2.43
2023-03-11T14:50:36.605Z,2.00
2023-03-11T14:53:10.070Z,2.03
2023-03-11T14:55:41.296Z,1.83
2023-03-11T14:58:16.238Z,1.70
2023-03-11T15:00:51.516Z,1.70
2023-03-11T15:03:24.422Z,1.80
2023-03-11T15:05:55.834Z,1.90
2023-03-11T15:08:28.239Z,1.77
2023-03-11T15:11:18.898Z,1.80
2023-03-11T15:13:50.927Z,1.53
2023-03-11T15:16:31.476Z,1.87
2023-03-11T15:19:02.586Z,2.13
2023-03-11T15:21:31.582Z,2.00
2023-03-11T15:24:05.154Z,1.90
2023-03-11T15:26:35.508Z,2.10
2023-03-11T15:29:13.944Z,1.80
2023-03-11T15:31:45.212Z,2.23
2023-03-11T15:34:25.419Z,2.30
2023-03-11T15:37:07.583Z,2.40
2023-03-11T15:39:46.591Z,2.63
2023-03-11T15:42:19.910Z,2.00
2023-03-11T15:45:13.401Z,2.20
2023-03-11T15:47:43.055Z,2.20
2023-03-11T15:50:25.241Z,2.10
2023-03-11T15:52:55.089Z,2.20
2023-03-11T15:55:23.630Z,2.50
2023-03-11T15:57:54.100Z,2.30
2023-03-11T16:00:24.355Z,2.10
2023-03-11T16:02:54.583Z,2.30
2023-03-11T16:05:25.473Z,2.80
2023-03-11T16:07:54.332Z,2.47
2023-03-11T16:10:24.751Z,2.30
2023-03-11T16:12:53.454Z,2.30
2023-03-11T16:15:26.558Z,2.43
2023-03-11T16:17:57.420Z,2.17
2023-03-11T16:20:27.685Z,2.73
2023-03-11T16:22:59.688Z,3.13
2023-03-11T16:25:30.284Z,3.07
2023-03-11T16:27:58.895Z,2.70
2023-03-11T16:30:28.054Z,3.10
2023-03-11T16:32:57.497Z,2.57
2023-03-11T16:35:25.840Z,3.50
2023-03-11T16:37:54.598Z,3.50
2023-03-11T16:40:28.429Z,3.07
2023-03-11T16:42:59.691Z,3.07
2023-03-11T16:45:27.846Z,2.83
2023-03-11T16:47:56.223Z,2.73
2023-03-11T16:50:26.818Z,2.80
2023-03-11T16:52:56.001Z,2.80
2023-03-11T16:55:25.735Z,3.03
2023-03-11T16:57:55.993Z,2.93
2023-03-11T17:00:24.894Z,2.83
2023-03-11T17:02:53.397Z,3.97
2023-03-11T17:05:21.745Z,3.33
2023-03-11T17:07:54.435Z,3.13
2023-03-11T17:10:24.585Z,2.70
2023-03-11T17:12:53.134Z,3.03
2023-03-11T17:15:21.785Z,3.20
2023-03-11T17:17:50.747Z,2.70
2023-03-11T17:20:21.478Z,2.87
2023-03-11T17:22:51.156Z,2.83
2023-03-11T17:25:19.647Z,3.30
2023-03-11T17:27:48.032Z,2.93
2023-03-11T17:30:27.118Z,3.60
2023-03-11T17:33:02.963Z,2.40
2023-03-11T17:35:31.486Z,2.97
2023-03-11T17:38:01.062Z,2.90
2023-03-11T17:40:31.634Z,2.67
2023-03-11T17:42:59.888Z,2.73
2023-03-11T17:45:28.298Z,2.80
2023-03-11T17:47:56.502Z,2.60
2023-03-11T17:50:26.379Z,3.13
2023-03-11T17:52:56.498Z,3.47
2023-03-11T17:55:26.330Z,3.43
2023-03-11T17:57:54.619Z,3.53
2023-03-11T18:00:23.622Z,3.23
2023-03-11T18:02:52.172Z,3.50
2023-03-11T18:05:21.014Z,3.33
2023-03-11T18:07:49.577Z,3.60
2023-03-11T18:10:18.225Z,3.23
2023-03-11T18:12:48.731Z,3.20
2023-03-11T18:15:19.309Z,3.93
2023-03-11T18:17:48.539Z,3.50
2023-03-11T18:20:17.349Z,3.83
2023-03-11T18:22:46.982Z,3.87
2023-03-11T18:25:15.251Z,4.37
2023-03-11T18:27:44.000Z,3.83
2023-03-11T18:30:14.815Z,4.00
2023-03-11T18:32:43.453Z,4.30
2023-03-11T18:35:14.257Z,4.27
2023-03-11T18:37:42.601Z,3.70
2023-03-11T18:40:12.303Z,3.40
2023-03-11T18:42:40.861Z,3.93
2023-03-11T18:45:12.064Z,4.30
2023-03-11T18:47:41.473Z,3.70
2023-03-11T18:50:10.821Z,4.00
2023-03-11T18:52:39.167Z,4.37
2023-03-11T18:55:08.097Z,3.53
2023-03-11T18:57:36.453Z,3.77
2023-03-11T19:00:05.464Z,3.40
2023-03-11T19:02:33.872Z,3.90
2023-03-11T19:05:04.446Z,4.23
2023-03-11T19:07:33.037Z,3.60
2023-03-11T19:10:02.084Z,4.17
2023-03-11T19:12:32.465Z,3.93
2023-03-11T19:15:00.931Z,3.57
2023-03-11T19:17:29.278Z,3.10
2023-03-11T19:19:57.630Z,3.67
2023-03-11T19:22:27.301Z,4.00
2023-03-11T19:24:55.828Z,4.30
2023-03-11T19:27:24.249Z,3.83
2023-03-11T19:29:52.648Z,4.23
2023-03-11T19:32:21.127Z,4.20
2023-03-11T19:34:49.475Z,3.63
2023-03-11T19:37:18.228Z,4.30
2023-03-11T19:39:47.694Z,4.07
2023-03-11T19:42:16.170Z,4.20
2023-03-11T19:44:44.615Z,4.10
2023-03-11T19:47:13.097Z,4.23
2023-03-11T19:49:41.671Z,4.37
2023-03-11T19:52:11.223Z,4.17
2023-03-11T19:54:39.651Z,4.57
2023-03-11T19:57:09.260Z,4.27
2023-03-11T19:59:37.289Z,4.60
2023-03-11T20:02:06.564Z,4.60
2023-03-11T20:04:35.223Z,5.30
2023-03-11T20:07:03.327Z,6.13
2023-03-11T20:09:33.199Z,5.37
2023-03-11T20:12:01.858Z,6.00
2023-03-11T20:14:32.455Z,6.73
2023-03-11T20:17:00.572Z,8.33
2023-03-11T20:19:29.715Z,6.77
2023-03-11T20:21:57.991Z,7.13
2023-03-11T20:24:26.558Z,6.53
2023-03-11T20:26:54.849Z,5.83
2023-03-11T20:29:23.148Z,6.67
2023-03-11T20:31:52.836Z,6.10
2023-03-11T20:34:21.532Z,5.70
2023-03-11T20:36:50.987Z,6.37
2023-03-11T20:39:19.371Z,6.10
2023-03-11T20:41:47.951Z,6.20
2023-03-11T20:44:15.996Z,6.10
2023-03-11T20:46:44.695Z,6.50
2023-03-11T20:49:14.299Z,6.97
2023-03-11T20:51:43.848Z,6.47
2023-03-11T20:54:12.602Z,7.03
2023-03-11T20:56:40.695Z,7.93
2023-03-11T20:59:09.341Z,6.33
2023-03-11T21:01:37.556Z,5.43
2023-03-11T21:04:06.387Z,7.30
2023-03-11T21:06:38.132Z,5.13
2023-03-11T21:09:08.574Z,5.93
2023-03-11T21:11:36.704Z,5.43
2023-03-11T21:14:05.848Z,5.83
2023-03-11T21:16:35.032Z,6.27
2023-03-11T21:19:05.568Z,6.17
2023-03-11T21:21:35.283Z,4.97
2023-03-11T21:24:03.876Z,6.23
2023-03-11T21:26:31.949Z,5.80
2023-03-11T21:29:00.247Z,5.93
2023-03-11T21:31:29.580Z,5.80
2023-03-11T21:33:59.570Z,5.83
2023-03-11T21:36:28.446Z,5.70
2023-03-11T21:38:57.850Z,4.90
2023-03-11T21:41:27.780Z,5.37
2023-03-11T21:43:57.644Z,5.83
2023-03-11T21:46:28.066Z,5.37
2023-03-11T21:48:56.721Z,5.53
2023-03-11T21:51:25.708Z,5.83
2023-03-11T21:53:53.789Z,6.63
2023-03-11T21:56:23.552Z,7.30
2023-03-11T21:58:53.741Z,7.80
2023-03-11T22:01:21.989Z,8.57
2023-03-11T22:03:50.589Z,8.27
2023-03-11T22:06:18.860Z,8.50
2023-03-11T22:08:47.144Z,5.30
2023-03-11T22:11:18.460Z,5.23
2023-03-11T22:13:49.247Z,5.13
2023-03-11T22:16:18.129Z,4.97
2023-03-11T22:18:46.842Z,4.73
2023-03-11T22:21:16.340Z,4.73
2023-03-11T22:23:45.583Z,3.90
2023-03-11T22:26:14.140Z,3.90
2023-03-11T22:28:42.218Z,4.87
2023-03-11T22:31:13.950Z,5.37
2023-03-11T22:33:42.366Z,4.40
2023-03-11T22:36:11.012Z,4.77
2023-03-11T22:38:41.941Z,3.50
2023-03-11T22:41:10.121Z,3.80
2023-03-11T22:43:39.275Z,3.87
2023-03-11T22:46:08.212Z,3.97
2023-03-11T22:48:37.772Z,4.23
2023-03-11T22:51:07.164Z,4.60
2023-03-11T22:53:35.374Z,3.53
2023-03-11T22:56:08.270Z,3.80
2023-03-11T22:58:36.516Z,3.93
2023-03-11T23:01:05.406Z,3.80
2023-03-11T23:03:33.911Z,4.30
2023-03-11T23:06:06.515Z,4.40
2023-03-11T23:08:35.133Z,3.37
2023-03-11T23:11:04.635Z,3.50
2023-03-11T23:13:35.560Z,3.63
2023-03-11T23:16:08.673Z,3.60
2023-03-11T23:18:36.968Z,3.50
2023-03-11T23:21:07.156Z,3.53
2023-03-11T23:23:35.137Z,3.67
2023-03-11T23:26:09.083Z,3.63
2023-03-11T23:28:37.251Z,3.50
2023-03-11T23:31:06.050Z,3.00
2023-03-11T23:33:34.339Z,3.07
2023-03-11T23:36:03.576Z,3.80
2023-03-11T23:38:33.420Z,3.03
2023-03-11T23:41:01.490Z,3.40
2023-03-11T23:43:29.702Z,3.67
2023-03-11T23:45:57.911Z,3.30
2023-03-11T23:48:26.051Z,3.43
2023-03-11T23:50:54.533Z,3.97
2023-03-11T23:53:23.308Z,3.50
2023-03-11T23:55:52.877Z,3.47
2023-03-11T23:58:22.007Z,3.70
